sensor_id;sensor_type;location;lat;lon;timestamp;P1;durP1;ratioP1;P2;durP2;ratioP2
3280;SDS011;1652;51.318;6.202;2023-04-03T00:00:33;5.80;;;5.40;;
3280;SDS011;1652;51.318;6.202;2023-04-03T00:03:01;5.93;;;5.30;;
3280;SDS011;1652;51.318;6.202;2023-04-03T00:05:28;6.13;;;5.33;;
3280;SDS011;1652;51.318;6.202;2023-04-03T00:07:54;5.83;;;5.13;;
3280;SDS011;1652;51.318;6.202;2023-04-03T00:10:21;6.37;;;5.83;;
3280;SDS011;1652;51.318;6.202;2023-04-03T00:12:49;6.00;;;5.63;;
3280;SDS011;1652;51.318;6.202;2023-04-03T00:15:16;6.20;;;5.70;;
3280;SDS011;1652;51.318;6.202;2023-04-03T00:17:43;7.77;;;6.60;;
3280;SDS011;1652;51.318;6.202;2023-04-03T00:20:10;7.03;;;6.43;;
3280;SDS011;1652;51.318;6.202;2023-04-03T00:22:38;6.50;;;5.30;;
3280;SDS011;1652;51.318;6.202;2023-04-03T00:25:05;6.73;;;6.13;;
3280;SDS011;1652;51.318;6.202;2023-04-03T00:27:32;6.10;;;5.50;;
3280;SDS011;1652;51.318;6.202;2023-04-03T00:30:02;5.97;;;5.50;;
3280;SDS011;1652;51.318;6.202;2023-04-03T00:32:29;9.03;;;6.77;;
3280;SDS011;1652;51.318;6.202;2023-04-03T00:34:56;7.90;;;7.10;;
3280;SDS011;1652;51.318;6.202;2023-04-03T00:37:23;6.07;;;5.57;;
3280;SDS011;1652;51.318;6.202;2023-04-03T00:39:50;10.47;;;6.63;;
3280;SDS011;1652;51.318;6.202;2023-04-03T00:42:17;7.07;;;6.37;;
3280;SDS011;1652;51.318;6.202;2023-04-03T00:47:11;9.33;;;6.87;;
3280;SDS011;1652;51.318;6.202;2023-04-03T00:49:42;7.80;;;6.10;;
3280;SDS011;1652;51.318;6.202;2023-04-03T00:52:15;7.97;;;7.17;;
3280;SDS011;1652;51.318;6.202;2023-04-03T00:54:44;8.70;;;7.20;;
3280;SDS011;1652;51.318;6.202;2023-04-03T00:57:14;7.10;;;6.50;;
3280;SDS011;1652;51.318;6.202;2023-04-03T00:59:43;6.77;;;6.20;;
3280;SDS011;1652;51.318;6.202;2023-04-03T01:02:15;6.40;;;5.67;;
3280;SDS011;1652;51.318;6.202;2023-04-03T01:04:42;9.07;;;6.97;;
3280;SDS011;1652;51.318;6.202;2023-04-03T01:07:10;8.17;;;7.20;;
3280;SDS011;1652;51.318;6.202;2023-04-03T01:09:58;10.43;;;6.77;;
3280;SDS011;1652;51.318;6.202;2023-04-03T01:12:28;10.70;;;7.20;;
3280;SDS011;1652;51.318;6.202;2023-04-03T01:14:58;14.53;;;8.40;;
3280;SDS011;1652;51.318;6.202;2023-04-03T01:17:37;12.87;;;7.33;;
3280;SDS011;1652;51.318;6.202;2023-04-03T01:22:56;12.97;;;7.10;;
3280;SDS011;1652;51.318;6.202;2023-04-03T01:25:50;7.40;;;6.70;;
3280;SDS011;1652;51.318;6.202;2023-04-03T01:33:45;8.77;;;7.87;;
3280;SDS011;1652;51.318;6.202;2023-04-03T01:36:17;6.87;;;6.27;;
3280;SDS011;1652;51.318;6.202;2023-04-03T01:38:47;15.53;;;6.40;;
3280;SDS011;1652;51.318;6.202;2023-04-03T01:41:14;6.47;;;5.70;;
3280;SDS011;1652;51.318;6.202;2023-04-03T01:43:42;7.23;;;6.20;;
3280;SDS011;1652;51.318;6.202;2023-04-03T01:46:09;10.43;;;6.20;;
3280;SDS011;1652;51.318;6.202;2023-04-03T01:48:36;12.63;;;7.50;;
3280;SDS011;1652;51.318;6.202;2023-04-03T01:51:03;10.77;;;6.33;;
3280;SDS011;1652;51.318;6.202;2023-04-03T01:53:30;7.60;;;6.90;;
3280;SDS011;1652;51.318;6.202;2023-04-03T01:55:57;8.90;;;7.83;;
3280;SDS011;1652;51.318;6.202;2023-04-03T01:58:24;8.73;;;7.67;;
3280;SDS011;1652;51.318;6.202;2023-04-03T02:00:51;7.00;;;6.60;;
3280;SDS011;1652;51.318;6.202;2023-04-03T02:03:18;13.43;;;7.13;;
3280;SDS011;1652;51.318;6.202;2023-04-03T02:05:46;7.80;;;7.00;;
3280;SDS011;1652;51.318;6.202;2023-04-03T02:08:13;8.80;;;7.77;;
3280;SDS011;1652;51.318;6.202;2023-04-03T02:10:40;10.17;;;7.43;;
3280;SDS011;1652;51.318;6.202;2023-04-03T02:13:07;8.00;;;7.20;;
3280;SDS011;1652;51.318;6.202;2023-04-03T02:15:34;7.97;;;7.27;;
3280;SDS011;1652;51.318;6.202;2023-04-03T02:18:03;8.40;;;7.23;;
3280;SDS011;1652;51.318;6.202;2023-04-03T02:20:32;7.00;;;6.40;;
3280;SDS011;1652;51.318;6.202;2023-04-03T02:23:00;9.97;;;6.50;;
3280;SDS011;1652;51.318;6.202;2023-04-03T02:25:28;7.37;;;6.77;;
3280;SDS011;1652;51.318;6.202;2023-04-03T02:27:56;9.83;;;7.53;;
3280;SDS011;1652;51.318;6.202;2023-04-03T02:30:23;9.40;;;7.50;;
3280;SDS011;1652;51.318;6.202;2023-04-03T02:32:50;7.57;;;6.90;;
3280;SDS011;1652;51.318;6.202;2023-04-03T02:35:17;10.63;;;7.30;;
3280;SDS011;1652;51.318;6.202;2023-04-03T02:37:44;9.03;;;6.63;;
3280;SDS011;1652;51.318;6.202;2023-04-03T02:40:11;7.93;;;7.10;;
3280;SDS011;1652;51.318;6.202;2023-04-03T02:42:38;7.40;;;6.70;;
3280;SDS011;1652;51.318;6.202;2023-04-03T02:45:05;8.83;;;6.60;;
3280;SDS011;1652;51.318;6.202;2023-04-03T02:47:33;8.47;;;6.70;;
3280;SDS011;1652;51.318;6.202;2023-04-03T02:50:00;7.23;;;5.50;;
3280;SDS011;1652;51.318;6.202;2023-04-03T02:52:27;8.73;;;5.90;;
3280;SDS011;1652;51.318;6.202;2023-04-03T02:54:54;5.33;;;4.87;;
3280;SDS011;1652;51.318;6.202;2023-04-03T02:57:20;5.30;;;4.80;;
3280;SDS011;1652;51.318;6.202;2023-04-03T02:59:48;7.10;;;4.10;;
3280;SDS011;1652;51.318;6.202;2023-04-03T03:02:15;8.23;;;5.07;;
3280;SDS011;1652;51.318;6.202;2023-04-03T03:04:42;5.00;;;4.70;;
3280;SDS011;1652;51.318;6.202;2023-04-03T03:07:09;9.53;;;5.00;;
3280;SDS011;1652;51.318;6.202;2023-04-03T03:09:36;4.43;;;4.20;;
3280;SDS011;1652;51.318;6.202;2023-04-03T03:12:03;4.80;;;4.33;;
3280;SDS011;1652;51.318;6.202;2023-04-03T03:14:30;6.03;;;5.27;;
3280;SDS011;1652;51.318;6.202;2023-04-03T03:16:58;5.10;;;4.67;;
3280;SDS011;1652;51.318;6.202;2023-04-03T03:19:24;5.87;;;3.80;;
3280;SDS011;1652;51.318;6.202;2023-04-03T03:21:51;4.40;;;3.90;;
3280;SDS011;1652;51.318;6.202;2023-04-03T03:24:18;4.10;;;3.80;;
3280;SDS011;1652;51.318;6.202;2023-04-03T03:26:45;3.90;;;3.67;;
3280;SDS011;1652;51.318;6.202;2023-04-03T03:29:12;7.13;;;4.27;;
3280;SDS011;1652;51.318;6.202;2023-04-03T03:31:39;9.97;;;4.30;;
3280;SDS011;1652;51.318;6.202;2023-04-03T03:34:06;3.20;;;3.00;;
3280;SDS011;1652;51.318;6.202;2023-04-03T03:36:33;4.10;;;3.80;;
3280;SDS011;1652;51.318;6.202;2023-04-03T03:39:00;8.43;;;3.73;;
3280;SDS011;1652;51.318;6.202;2023-04-03T03:41:27;3.90;;;3.20;;
3280;SDS011;1652;51.318;6.202;2023-04-03T03:43:54;3.90;;;3.70;;
3280;SDS011;1652;51.318;6.202;2023-04-03T03:46:21;4.07;;;3.67;;
3280;SDS011;1652;51.318;6.202;2023-04-03T03:48:48;3.00;;;2.80;;
3280;SDS011;1652;51.318;6.202;2023-04-03T03:51:15;3.43;;;3.13;;
3280;SDS011;1652;51.318;6.202;2023-04-03T03:53:42;3.60;;;3.40;;
3280;SDS011;1652;51.318;6.202;2023-04-03T03:56:09;3.90;;;3.53;;
3280;SDS011;1652;51.318;6.202;2023-04-03T03:58:36;6.00;;;3.77;;
3280;SDS011;1652;51.318;6.202;2023-04-03T04:01:04;3.40;;;3.20;;
3280;SDS011;1652;51.318;6.202;2023-04-03T04:03:32;3.27;;;2.80;;
3280;SDS011;1652;51.318;6.202;2023-04-03T04:05:59;8.70;;;3.73;;
3280;SDS011;1652;51.318;6.202;2023-04-03T04:08:26;3.00;;;2.80;;
3280;SDS011;1652;51.318;6.202;2023-04-03T04:10:53;7.43;;;2.90;;
3280;SDS011;1652;51.318;6.202;2023-04-03T04:13:20;6.73;;;4.20;;
3280;SDS011;1652;51.318;6.202;2023-04-03T04:15:47;13.40;;;6.23;;
3280;SDS011;1652;51.318;6.202;2023-04-03T04:18:14;10.07;;;3.80;;
3280;SDS011;1652;51.318;6.202;2023-04-03T04:20:41;11.37;;;3.57;;
3280;SDS011;1652;51.318;6.202;2023-04-03T04:23:08;4.20;;;3.80;;
3280;SDS011;1652;51.318;6.202;2023-04-03T04:25:35;5.33;;;3.07;;
3280;SDS011;1652;51.318;6.202;2023-04-03T04:28:02;4.03;;;2.90;;
3280;SDS011;1652;51.318;6.202;2023-04-03T04:30:29;4.50;;;2.90;;
3280;SDS011;1652;51.318;6.202;2023-04-03T04:32:56;4.37;;;3.10;;
3280;SDS011;1652;51.318;6.202;2023-04-03T04:35:23;3.00;;;2.80;;
3280;SDS011;1652;51.318;6.202;2023-04-03T04:37:50;3.40;;;3.10;;
3280;SDS011;1652;51.318;6.202;2023-04-03T04:40:17;3.23;;;2.93;;
3280;SDS011;1652;51.318;6.202;2023-04-03T04:42:44;3.03;;;2.83;;
3280;SDS011;1652;51.318;6.202;2023-04-03T04:45:11;7.07;;;2.50;;
3280;SDS011;1652;51.318;6.202;2023-04-03T04:47:38;8.20;;;2.67;;
3280;SDS011;1652;51.318;6.202;2023-04-03T04:50:05;3.43;;;2.97;;
3280;SDS011;1652;51.318;6.202;2023-04-03T04:52:32;6.10;;;3.10;;
3280;SDS011;1652;51.318;6.202;2023-04-03T04:54:59;4.03;;;3.10;;
3280;SDS011;1652;51.318;6.202;2023-04-03T04:57:26;10.50;;;2.83;;
3280;SDS011;1652;51.318;6.202;2023-04-03T04:59:53;5.80;;;2.43;;
3280;SDS011;1652;51.318;6.202;2023-04-03T05:02:20;5.83;;;2.70;;
3280;SDS011;1652;51.318;6.202;2023-04-03T05:04:47;3.97;;;2.70;;
3280;SDS011;1652;51.318;6.202;2023-04-03T05:07:16;5.50;;;2.37;;
3280;SDS011;1652;51.318;6.202;2023-04-03T05:09:43;4.50;;;2.50;;
3280;SDS011;1652;51.318;6.202;2023-04-03T05:12:10;3.00;;;2.57;;
3280;SDS011;1652;51.318;6.202;2023-04-03T05:14:37;5.73;;;2.53;;
3280;SDS011;1652;51.318;6.202;2023-04-03T05:17:04;11.40;;;3.20;;
3280;SDS011;1652;51.318;6.202;2023-04-03T05:19:31;2.40;;;2.20;;
3280;SDS011;1652;51.318;6.202;2023-04-03T05:21:58;9.43;;;2.50;;
3280;SDS011;1652;51.318;6.202;2023-04-03T05:24:24;5.37;;;2.70;;
3280;SDS011;1652;51.318;6.202;2023-04-03T05:26:52;3.20;;;2.33;;
3280;SDS011;1652;51.318;6.202;2023-04-03T05:29:19;2.53;;;2.33;;
3280;SDS011;1652;51.318;6.202;2023-04-03T05:31:48;3.70;;;3.17;;
3280;SDS011;1652;51.318;6.202;2023-04-03T05:34:16;8.10;;;3.10;;
3280;SDS011;1652;51.318;6.202;2023-04-03T05:36:43;8.20;;;2.40;;
3280;SDS011;1652;51.318;6.202;2023-04-03T05:39:11;2.30;;;2.10;;
3280;SDS011;1652;51.318;6.202;2023-04-03T05:41:38;4.93;;;2.47;;
3280;SDS011;1652;51.318;6.202;2023-04-03T05:44:05;2.73;;;2.60;;
3280;SDS011;1652;51.318;6.202;2023-04-03T05:46:32;4.60;;;2.40;;
3280;SDS011;1652;51.318;6.202;2023-04-03T05:48:59;2.97;;;2.77;;
3280;SDS011;1652;51.318;6.202;2023-04-03T05:51:31;4.83;;;2.47;;
3280;SDS011;1652;51.318;6.202;2023-04-03T05:56:43;2.50;;;2.30;;
3280;SDS011;1652;51.318;6.202;2023-04-03T05:59:10;3.00;;;2.50;;
3280;SDS011;1652;51.318;6.202;2023-04-03T06:01:37;2.70;;;2.30;;
3280;SDS011;1652;51.318;6.202;2023-04-03T06:04:04;2.67;;;2.30;;
3280;SDS011;1652;51.318;6.202;2023-04-03T06:09:14;3.73;;;2.43;;
3280;SDS011;1652;51.318;6.202;2023-04-03T06:11:42;5.13;;;2.90;;
3280;SDS011;1652;51.318;6.202;2023-04-03T06:14:09;5.60;;;2.67;;
3280;SDS011;1652;51.318;6.202;2023-04-03T06:16:37;2.90;;;2.20;;
3280;SDS011;1652;51.318;6.202;2023-04-03T06:19:05;2.40;;;2.20;;
3280;SDS011;1652;51.318;6.202;2023-04-03T06:21:36;6.23;;;2.33;;
3280;SDS011;1652;51.318;6.202;2023-04-03T06:24:03;4.57;;;2.40;;
3280;SDS011;1652;51.318;6.202;2023-04-03T06:26:32;5.57;;;2.77;;
3280;SDS011;1652;51.318;6.202;2023-04-03T06:29:00;4.07;;;3.00;;
3280;SDS011;1652;51.318;6.202;2023-04-03T06:31:28;6.33;;;2.33;;
3280;SDS011;1652;51.318;6.202;2023-04-03T06:33:56;3.67;;;2.30;;
3280;SDS011;1652;51.318;6.202;2023-04-03T06:36:23;3.87;;;2.20;;
3280;SDS011;1652;51.318;6.202;2023-04-03T06:38:50;2.60;;;2.40;;
3280;SDS011;1652;51.318;6.202;2023-04-03T06:41:17;2.50;;;2.30;;
3280;SDS011;1652;51.318;6.202;2023-04-03T06:43:44;4.90;;;2.57;;
3280;SDS011;1652;51.318;6.202;2023-04-03T06:46:18;3.77;;;2.20;;
3280;SDS011;1652;51.318;6.202;2023-04-03T06:48:48;4.27;;;2.30;;
3280;SDS011;1652;51.318;6.202;2023-04-03T06:51:19;2.73;;;2.53;;
3280;SDS011;1652;51.318;6.202;2023-04-03T06:53:50;8.00;;;2.57;;
3280;SDS011;1652;51.318;6.202;2023-04-03T06:56:18;2.83;;;2.63;;
3280;SDS011;1652;51.318;6.202;2023-04-03T06:58:45;5.50;;;2.90;;
3280;SDS011;1652;51.318;6.202;2023-04-03T07:01:13;3.27;;;1.80;;
3280;SDS011;1652;51.318;6.202;2023-04-03T07:03:42;2.27;;;2.07;;
3280;SDS011;1652;51.318;6.202;2023-04-03T07:06:10;3.20;;;2.63;;
3280;SDS011;1652;51.318;6.202;2023-04-03T07:08:39;5.77;;;2.67;;
3280;SDS011;1652;51.318;6.202;2023-04-03T07:11:06;2.77;;;2.30;;
3280;SDS011;1652;51.318;6.202;2023-04-03T07:13:33;4.90;;;2.37;;
3280;SDS011;1652;51.318;6.202;2023-04-03T07:16:01;3.60;;;2.70;;
3280;SDS011;1652;51.318;6.202;2023-04-03T07:18:30;2.80;;;2.60;;
3280;SDS011;1652;51.318;6.202;2023-04-03T07:20:57;5.17;;;1.83;;
3280;SDS011;1652;51.318;6.202;2023-04-03T07:23:24;5.20;;;2.23;;
3280;SDS011;1652;51.318;6.202;2023-04-03T07:25:51;3.03;;;2.23;;
3280;SDS011;1652;51.318;6.202;2023-04-03T07:28:19;3.23;;;1.90;;
3280;SDS011;1652;51.318;6.202;2023-04-03T07:30:49;3.50;;;2.20;;
3280;SDS011;1652;51.318;6.202;2023-04-03T07:33:18;4.43;;;2.03;;
3280;SDS011;1652;51.318;6.202;2023-04-03T07:35:46;2.47;;;2.27;;
3280;SDS011;1652;51.318;6.202;2023-04-03T07:38:13;5.33;;;2.50;;
3280;SDS011;1652;51.318;6.202;2023-04-03T07:40:45;6.00;;;1.90;;
3280;SDS011;1652;51.318;6.202;2023-04-03T07:43:17;2.23;;;2.03;;
3280;SDS011;1652;51.318;6.202;2023-04-03T07:45:44;4.60;;;2.00;;
3280;SDS011;1652;51.318;6.202;2023-04-03T07:48:13;3.97;;;1.90;;
3280;SDS011;1652;51.318;6.202;2023-04-03T07:50:40;5.90;;;2.47;;
3280;SDS011;1652;51.318;6.202;2023-04-03T07:53:07;5.00;;;2.27;;
3280;SDS011;1652;51.318;6.202;2023-04-03T07:55:34;7.03;;;2.20;;
3280;SDS011;1652;51.318;6.202;2023-04-03T07:58:06;4.70;;;2.33;;
3280;SDS011;1652;51.318;6.202;2023-04-03T08:00:33;3.03;;;1.57;;
3280;SDS011;1652;51.318;6.202;2023-04-03T08:03:00;3.70;;;2.83;;
3280;SDS011;1652;51.318;6.202;2023-04-03T08:05:28;3.60;;;2.40;;
3280;SDS011;1652;51.318;6.202;2023-04-03T08:07:55;6.83;;;1.97;;
3280;SDS011;1652;51.318;6.202;2023-04-03T08:10:21;7.73;;;2.40;;
3280;SDS011;1652;51.318;6.202;2023-04-03T08:12:49;1.83;;;1.73;;
3280;SDS011;1652;51.318;6.202;2023-04-03T08:15:16;2.50;;;1.40;;
3280;SDS011;1652;51.318;6.202;2023-04-03T08:17:43;1.67;;;1.40;;
3280;SDS011;1652;51.318;6.202;2023-04-03T08:20:10;5.07;;;2.17;;
3280;SDS011;1652;51.318;6.202;2023-04-03T08:22:37;2.43;;;1.67;;
3280;SDS011;1652;51.318;6.202;2023-04-03T08:25:04;5.03;;;1.80;;
3280;SDS011;1652;51.318;6.202;2023-04-03T08:27:31;2.23;;;1.40;;
3280;SDS011;1652;51.318;6.202;2023-04-03T08:30:01;2.17;;;1.97;;
3280;SDS011;1652;51.318;6.202;2023-04-03T08:32:28;6.70;;;1.80;;
3280;SDS011;1652;51.318;6.202;2023-04-03T08:34:55;4.43;;;1.90;;
3280;SDS011;1652;51.318;6.202;2023-04-03T08:37:22;3.73;;;1.60;;
3280;SDS011;1652;51.318;6.202;2023-04-03T08:39:49;3.50;;;1.13;;
3280;SDS011;1652;51.318;6.202;2023-04-03T08:42:19;4.80;;;2.20;;
3280;SDS011;1652;51.318;6.202;2023-04-03T08:45:12;2.20;;;1.30;;
3280;SDS011;1652;51.318;6.202;2023-04-03T08:50:38;3.90;;;1.30;;
3280;SDS011;1652;51.318;6.202;2023-04-03T08:53:12;2.20;;;2.00;;
3280;SDS011;1652;51.318;6.202;2023-04-03T08:55:45;5.33;;;2.00;;
3280;SDS011;1652;51.318;6.202;2023-04-03T09:00:44;2.60;;;1.73;;
3280;SDS011;1652;51.318;6.202;2023-04-03T09:03:18;1.77;;;1.67;;
3280;SDS011;1652;51.318;6.202;2023-04-03T09:17:16;1.73;;;1.20;;
3280;SDS011;1652;51.318;6.202;2023-04-03T09:19:50;2.23;;;0.87;;
3280;SDS011;1652;51.318;6.202;2023-04-03T09:22:27;1.17;;;1.07;;
3280;SDS011;1652;51.318;6.202;2023-04-03T09:27:44;4.00;;;1.03;;
3280;SDS011;1652;51.318;6.202;2023-04-03T09:30:15;1.30;;;0.90;;
3280;SDS011;1652;51.318;6.202;2023-04-03T09:32:48;0.70;;;0.60;;
3280;SDS011;1652;51.318;6.202;2023-04-03T09:35:33;1.07;;;0.60;;
3280;SDS011;1652;51.318;6.202;2023-04-03T09:40:43;4.37;;;1.80;;
3280;SDS011;1652;51.318;6.202;2023-04-03T09:45:50;1.10;;;1.00;;
3280;SDS011;1652;51.318;6.202;2023-04-03T09:48:20;2.70;;;0.87;;
3280;SDS011;1652;51.318;6.202;2023-04-03T09:53:41;3.10;;;0.80;;
3280;SDS011;1652;51.318;6.202;2023-04-03T09:56:18;0.77;;;0.77;;
3280;SDS011;1652;51.318;6.202;2023-04-03T10:04:06;1.10;;;0.80;;
3280;SDS011;1652;51.318;6.202;2023-04-03T10:06:45;1.23;;;0.60;;
3280;SDS011;1652;51.318;6.202;2023-04-03T10:09:24;0.90;;;0.70;;
3280;SDS011;1652;51.318;6.202;2023-04-03T10:14:38;2.43;;;0.93;;
3280;SDS011;1652;51.318;6.202;2023-04-03T10:19:59;1.17;;;0.80;;
3280;SDS011;1652;51.318;6.202;2023-04-03T10:22:45;1.50;;;1.00;;
3280;SDS011;1652;51.318;6.202;2023-04-03T10:25:41;1.67;;;0.90;;
3280;SDS011;1652;51.318;6.202;2023-04-03T10:36:19;1.87;;;0.80;;
3280;SDS011;1652;51.318;6.202;2023-04-03T10:38:57;0.70;;;0.67;;
3280;SDS011;1652;51.318;6.202;2023-04-03T10:42:08;1.93;;;0.80;;
3280;SDS011;1652;51.318;6.202;2023-04-03T10:49:50;1.23;;;1.10;;
3280;SDS011;1652;51.318;6.202;2023-04-03T10:55:24;0.90;;;0.70;;
3280;SDS011;1652;51.318;6.202;2023-04-03T10:58:18;1.03;;;0.77;;
3280;SDS011;1652;51.318;6.202;2023-04-03T11:00:51;0.73;;;0.60;;
3280;SDS011;1652;51.318;6.202;2023-04-03T11:03:27;0.67;;;0.60;;
3280;SDS011;1652;51.318;6.202;2023-04-03T11:06:08;1.07;;;0.97;;
3280;SDS011;1652;51.318;6.202;2023-04-03T11:08:50;0.70;;;0.63;;
3280;SDS011;1652;51.318;6.202;2023-04-03T11:11:36;0.73;;;0.73;;
3280;SDS011;1652;51.318;6.202;2023-04-03T11:14:11;0.67;;;0.60;;
3280;SDS011;1652;51.318;6.202;2023-04-03T11:16:47;0.70;;;0.60;;
3280;SDS011;1652;51.318;6.202;2023-04-03T11:19:33;0.80;;;0.77;;
3280;SDS011;1652;51.318;6.202;2023-04-03T11:22:04;1.30;;;0.73;;
3280;SDS011;1652;51.318;6.202;2023-04-03T11:24:36;3.10;;;1.00;;
3280;SDS011;1652;51.318;6.202;2023-04-03T11:27:08;1.07;;;0.97;;
3280;SDS011;1652;51.318;6.202;2023-04-03T11:29:42;1.07;;;0.90;;
3280;SDS011;1652;51.318;6.202;2023-04-03T11:32:32;1.13;;;0.90;;
3280;SDS011;1652;51.318;6.202;2023-04-03T11:35:04;7.27;;;1.03;;
3280;SDS011;1652;51.318;6.202;2023-04-03T11:37:34;2.20;;;1.53;;
3280;SDS011;1652;51.318;6.202;2023-04-03T11:40:48;1.63;;;0.93;;
3280;SDS011;1652;51.318;6.202;2023-04-03T11:45:27;1.97;;;1.03;;
3280;SDS011;1652;51.318;6.202;2023-04-03T11:50:48;1.77;;;0.80;;
3280;SDS011;1652;51.318;6.202;2023-04-03T11:55:44;1.37;;;0.80;;
3280;SDS011;1652;51.318;6.202;2023-04-03T11:58:22;1.20;;;1.07;;
3280;SDS011;1652;51.318;6.202;2023-04-03T12:00:54;3.73;;;1.20;;
3280;SDS011;1652;51.318;6.202;2023-04-03T12:05:56;1.23;;;1.13;;
3280;SDS011;1652;51.318;6.202;2023-04-03T12:08:44;1.43;;;0.60;;
3280;SDS011;1652;51.318;6.202;2023-04-03T12:11:15;1.00;;;0.90;;
3280;SDS011;1652;51.318;6.202;2023-04-03T12:16:25;1.47;;;1.37;;
3280;SDS011;1652;51.318;6.202;2023-04-03T12:22:10;1.57;;;0.80;;
3280;SDS011;1652;51.318;6.202;2023-04-03T12:24:43;2.90;;;0.67;;
3280;SDS011;1652;51.318;6.202;2023-04-03T12:37:56;1.40;;;1.03;;
3280;SDS011;1652;51.318;6.202;2023-04-03T12:40:53;1.70;;;1.10;;
3280;SDS011;1652;51.318;6.202;2023-04-03T12:46:04;1.70;;;1.37;;
3280;SDS011;1652;51.318;6.202;2023-04-03T12:48:38;1.10;;;0.70;;
3280;SDS011;1652;51.318;6.202;2023-04-03T12:51:21;2.83;;;1.43;;
3280;SDS011;1652;51.318;6.202;2023-04-03T12:54:30;1.30;;;1.20;;
3280;SDS011;1652;51.318;6.202;2023-04-03T12:59:47;1.20;;;1.03;;
3280;SDS011;1652;51.318;6.202;2023-04-03T13:04:56;1.67;;;1.17;;
3280;SDS011;1652;51.318;6.202;2023-04-03T13:07:26;1.07;;;0.80;;
3280;SDS011;1652;51.318;6.202;2023-04-03T13:12:44;2.03;;;1.20;;
3280;SDS011;1652;51.318;6.202;2023-04-03T13:15:18;2.73;;;1.20;;
3280;SDS011;1652;51.318;6.202;2023-04-03T13:17:49;1.43;;;1.20;;
3280;SDS011;1652;51.318;6.202;2023-04-03T13:20:22;2.63;;;1.13;;
3280;SDS011;1652;51.318;6.202;2023-04-03T13:22:57;0.87;;;0.87;;
3280;SDS011;1652;51.318;6.202;2023-04-03T13:25:30;1.70;;;1.30;;
3280;SDS011;1652;51.318;6.202;2023-04-03T13:27:59;1.50;;;1.30;;
3280;SDS011;1652;51.318;6.202;2023-04-03T13:30:39;1.90;;;1.40;;
3280;SDS011;1652;51.318;6.202;2023-04-03T13:33:21;1.33;;;1.23;;
3280;SDS011;1652;51.318;6.202;2023-04-03T13:35:56;1.37;;;1.27;;
3280;SDS011;1652;51.318;6.202;2023-04-03T13:38:28;1.43;;;0.90;;
3280;SDS011;1652;51.318;6.202;2023-04-03T13:41:01;2.03;;;0.90;;
3280;SDS011;1652;51.318;6.202;2023-04-03T13:43:47;1.73;;;1.33;;
3280;SDS011;1652;51.318;6.202;2023-04-03T13:48:50;1.90;;;1.10;;
3280;SDS011;1652;51.318;6.202;2023-04-03T13:51:19;2.30;;;1.07;;
3280;SDS011;1652;51.318;6.202;2023-04-03T13:53:51;2.20;;;0.70;;
3280;SDS011;1652;51.318;6.202;2023-04-03T13:56:29;1.30;;;1.20;;
3280;SDS011;1652;51.318;6.202;2023-04-03T14:04:30;1.40;;;1.10;;
3280;SDS011;1652;51.318;6.202;2023-04-03T14:07:11;3.23;;;1.33;;
3280;SDS011;1652;51.318;6.202;2023-04-03T14:09:38;2.33;;;1.23;;
3280;SDS011;1652;51.318;6.202;2023-04-03T14:12:07;1.67;;;1.57;;
3280;SDS011;1652;51.318;6.202;2023-04-03T14:14:57;2.60;;;1.60;;
3280;SDS011;1652;51.318;6.202;2023-04-03T14:17:26;1.80;;;0.90;;
3280;SDS011;1652;51.318;6.202;2023-04-03T14:19:54;1.47;;;1.07;;
3280;SDS011;1652;51.318;6.202;2023-04-03T14:22:32;3.17;;;0.97;;
3280;SDS011;1652;51.318;6.202;2023-04-03T14:25:01;0.90;;;0.67;;
3280;SDS011;1652;51.318;6.202;2023-04-03T14:27:29;2.80;;;0.90;;
3280;SDS011;1652;51.318;6.202;2023-04-03T14:30:06;3.87;;;1.10;;
3280;SDS011;1652;51.318;6.202;2023-04-03T14:32:38;1.53;;;1.00;;
3280;SDS011;1652;51.318;6.202;2023-04-03T14:35:05;1.70;;;1.20;;
3280;SDS011;1652;51.318;6.202;2023-04-03T14:37:33;1.17;;;1.07;;
3280;SDS011;1652;51.318;6.202;2023-04-03T14:40:00;1.20;;;0.90;;
3280;SDS011;1652;51.318;6.202;2023-04-03T14:42:31;2.53;;;1.00;;
3280;SDS011;1652;51.318;6.202;2023-04-03T14:45:01;1.10;;;1.00;;
3280;SDS011;1652;51.318;6.202;2023-04-03T14:47:29;1.90;;;1.17;;
3280;SDS011;1652;51.318;6.202;2023-04-03T14:49:59;1.73;;;0.70;;
3280;SDS011;1652;51.318;6.202;2023-04-03T14:52:29;1.20;;;0.90;;
3280;SDS011;1652;51.318;6.202;2023-04-03T14:54:58;1.10;;;0.90;;
3280;SDS011;1652;51.318;6.202;2023-04-03T14:57:27;1.30;;;1.00;;
3280;SDS011;1652;51.318;6.202;2023-04-03T14:59:55;2.20;;;0.93;;
3280;SDS011;1652;51.318;6.202;2023-04-03T15:05:01;2.10;;;0.90;;
3280;SDS011;1652;51.318;6.202;2023-04-03T15:10:18;1.00;;;0.90;;
3280;SDS011;1652;51.318;6.202;2023-04-03T15:12:50;1.07;;;0.77;;
3280;SDS011;1652;51.318;6.202;2023-04-03T15:15:19;1.47;;;1.00;;
3280;SDS011;1652;51.318;6.202;2023-04-03T15:17:47;0.80;;;0.80;;
3280;SDS011;1652;51.318;6.202;2023-04-03T15:20:18;1.60;;;0.73;;
3280;SDS011;1652;51.318;6.202;2023-04-03T15:22:48;1.03;;;0.93;;
3280;SDS011;1652;51.318;6.202;2023-04-03T15:25:15;1.00;;;0.80;;
3280;SDS011;1652;51.318;6.202;2023-04-03T15:27:42;2.93;;;0.90;;
3280;SDS011;1652;51.318;6.202;2023-04-03T15:30:12;1.83;;;1.10;;
3280;SDS011;1652;51.318;6.202;2023-04-03T15:32:41;2.20;;;1.00;;
3280;SDS011;1652;51.318;6.202;2023-04-03T15:35:08;2.10;;;1.33;;
3280;SDS011;1652;51.318;6.202;2023-04-03T15:37:35;2.33;;;1.00;;
3280;SDS011;1652;51.318;6.202;2023-04-03T15:40:03;3.80;;;0.90;;
3280;SDS011;1652;51.318;6.202;2023-04-03T15:42:32;5.03;;;1.30;;
3280;SDS011;1652;51.318;6.202;2023-04-03T15:44:59;1.40;;;1.03;;
3280;SDS011;1652;51.318;6.202;2023-04-03T15:47:26;1.67;;;1.57;;
3280;SDS011;1652;51.318;6.202;2023-04-03T15:49:53;1.47;;;1.37;;
3280;SDS011;1652;51.318;6.202;2023-04-03T15:52:21;3.27;;;1.83;;
3280;SDS011;1652;51.318;6.202;2023-04-03T15:54:48;1.63;;;0.97;;
3280;SDS011;1652;51.318;6.202;2023-04-03T15:57:15;4.10;;;1.40;;
3280;SDS011;1652;51.318;6.202;2023-04-03T15:59:42;1.37;;;1.03;;
3280;SDS011;1652;51.318;6.202;2023-04-03T16:02:09;3.03;;;0.90;;
3280;SDS011;1652;51.318;6.202;2023-04-03T16:04:39;3.23;;;1.00;;
3280;SDS011;1652;51.318;6.202;2023-04-03T16:07:07;1.93;;;0.90;;
3280;SDS011;1652;51.318;6.202;2023-04-03T16:09:34;3.13;;;0.80;;
3280;SDS011;1652;51.318;6.202;2023-04-03T16:12:02;5.60;;;1.23;;
3280;SDS011;1652;51.318;6.202;2023-04-03T16:14:29;3.53;;;1.43;;
3280;SDS011;1652;51.318;6.202;2023-04-03T16:16:57;2.20;;;0.93;;
3280;SDS011;1652;51.318;6.202;2023-04-03T16:19:25;6.20;;;1.00;;
3280;SDS011;1652;51.318;6.202;2023-04-03T16:21:52;8.90;;;4.27;;
3280;SDS011;1652;51.318;6.202;2023-04-03T16:24:20;2.70;;;1.23;;
3280;SDS011;1652;51.318;6.202;2023-04-03T16:26:47;3.27;;;1.17;;
3280;SDS011;1652;51.318;6.202;2023-04-03T16:29:14;1.67;;;1.07;;
3280;SDS011;1652;51.318;6.202;2023-04-03T16:31:41;0.90;;;0.80;;
3280;SDS011;1652;51.318;6.202;2023-04-03T16:34:08;1.17;;;0.93;;
3280;SDS011;1652;51.318;6.202;2023-04-03T16:36:36;1.57;;;1.00;;
3280;SDS011;1652;51.318;6.202;2023-04-03T16:39:03;2.53;;;1.20;;
3280;SDS011;1652;51.318;6.202;2023-04-03T16:41:31;3.67;;;1.50;;
3280;SDS011;1652;51.318;6.202;2023-04-03T16:43:58;0.90;;;0.90;;
3280;SDS011;1652;51.318;6.202;2023-04-03T16:46:25;6.00;;;1.33;;
3280;SDS011;1652;51.318;6.202;2023-04-03T16:48:52;5.20;;;1.20;;
3280;SDS011;1652;51.318;6.202;2023-04-03T16:51:19;12.17;;;1.03;;
3280;SDS011;1652;51.318;6.202;2023-04-03T16:53:46;7.57;;;1.50;;
3280;SDS011;1652;51.318;6.202;2023-04-03T16:56:13;1.20;;;0.93;;
3280;SDS011;1652;51.318;6.202;2023-04-03T16:58:40;4.00;;;0.93;;
3280;SDS011;1652;51.318;6.202;2023-04-03T17:01:10;0.80;;;0.73;;
3280;SDS011;1652;51.318;6.202;2023-04-03T17:03:42;0.90;;;0.90;;
3280;SDS011;1652;51.318;6.202;2023-04-03T17:06:09;1.90;;;0.90;;
3280;SDS011;1652;51.318;6.202;2023-04-03T17:08:43;1.23;;;1.13;;
3280;SDS011;1652;51.318;6.202;2023-04-03T17:11:11;1.40;;;1.30;;
3280;SDS011;1652;51.318;6.202;2023-04-03T17:13:38;1.70;;;0.90;;
3280;SDS011;1652;51.318;6.202;2023-04-03T17:16:05;1.00;;;0.90;;
3280;SDS011;1652;51.318;6.202;2023-04-03T17:18:36;3.10;;;0.93;;
3280;SDS011;1652;51.318;6.202;2023-04-03T17:21:03;4.30;;;1.23;;
3280;SDS011;1652;51.318;6.202;2023-04-03T17:23:31;2.60;;;1.10;;
3280;SDS011;1652;51.318;6.202;2023-04-03T17:26:01;3.13;;;1.47;;
3280;SDS011;1652;51.318;6.202;2023-04-03T17:28:29;1.57;;;1.47;;
3280;SDS011;1652;51.318;6.202;2023-04-03T17:30:57;1.30;;;1.13;;
3280;SDS011;1652;51.318;6.202;2023-04-03T17:33:26;1.63;;;1.10;;